Enfield Center, New Hampshire
Current Conditions -  °F | °C
As of 6:17 PM on Tuesday 27 Jan 2015 (Local Time) from KLEB Reporting Station
Light Snow Light Snow  
Wind Chill: -21°   Ceiling: 2800
Heat Index: -12°   Visibility: 3mi
Dew Point: -17°   Wind: 15mph
Humidity: 67%   Direction: 340°NNW
Pressure: 29.74"   Gusts: 22mph
Location:  43.59°N, 72.11°W
Report Text: KLEB 272317Z 34013G19KT 3SM -SN OVC028 M12/M17 A2974 RMK AO2 P0000 T11171167
Loading
Personal Weather Stations






























Interactive Weather Map New forecast layout! Learn more

10-Day Weather Forecast

Advertisements
Track Severe Weather on mobile